Weather History for Rockland, ME

Change the Weather History Date:

Monday, January 30, 2012

  Actual Average Record
Temperature  
Mean Temperature 26 °F -  
Max Temperature 33 °F 28 °F 51 °F (2013)
Min Temperature 19 °F 14 °F 0 °F (1997)
Degree Days  
Heating Degree Days 39    
Moisture  
Dew Point 14 °F    
Average Humidity 55    
Maximum Humidity 100    
Minimum Humidity 31    
Precipitation  
Precipitation 0.00 in - - ()
Sea Level Pressure  
Sea Level Pressure 30.02 in    
Wind  
Wind Speed 8 mph (West)    
Max Wind Speed 21 mph    
Max Gust Speed 28 mph    
Visibility 9 miles    
Events      
Averages and records for this station are not official NWS values.
T = Trace of Precipitation, MM = Missing Value Source: NWS Daily Summary

Daily Weather History Graph

Daily Weather History Graph

Search for Another Location

Airport:

Trip Planner

Search our weather history database for the weather conditions in past years. The results will help you decide how hot, cold, wet, or windy it might be!

Date:

Astronomy

Jan. 30, 2012 Rise Set
Actual Time 6:56 AM EST 4:43 PM EST
Civil Twilight 6:25 AM EST 5:14 PM EST
Nautical Twilight 5:50 AM EST 5:48 PM EST
Astronomical Twilight 5:17 AM EST 6:22 PM EST
Moon 9:59 AM EST (1/30) No Moon Set
Length of Visible Light 10h 48m
Length of Day
9h 46m
Waxing Crescent, 46% of the Moon is Illuminated
Jan 30
Waxing Crescent
Jan 30
First Quarter
Feb 7
Full
Feb 14
Last Quarter
Feb 21
New

Hourly Weather History & Observations

Time (EST) Temp. Windchill Dew Point Humidity Pressure Visibility Wind Dir Wind Speed Gust Speed Precip Events Conditions
12:15 AM 30.2 °F 25.4 °F 19.4 °F 64% 29.95 in 10.0 mi West 4.6 mph - N/A   Clear
12:35 AM 32.0 °F 24.8 °F 19.4 °F 60% 29.94 in 10.0 mi WSW 8.1 mph - N/A   Clear
12:55 AM 32.0 °F 25.6 °F 19.4 °F 60% 29.94 in 10.0 mi WSW 6.9 mph - N/A   Clear
1:35 AM 33.8 °F 28.6 °F 19.4 °F 56% 29.93 in 10.0 mi WSW 5.8 mph - N/A   Clear
1:55 AM 30.2 °F 23.4 °F 17.6 °F 60% 29.93 in 10.0 mi West 6.9 mph - N/A   Clear
2:15 AM 30.2 °F 25.4 °F 17.6 °F 60% 29.93 in 10.0 mi West 4.6 mph - N/A   Clear
2:35 AM 30.2 °F 25.4 °F 17.6 °F 60% 29.93 in 10.0 mi WSW 4.6 mph - N/A   Clear
2:55 AM 30.2 °F 25.4 °F 19.4 °F 64% 29.93 in 10.0 mi WSW 4.6 mph - N/A   Clear
3:15 AM 30.2 °F 26.7 °F 19.4 °F 64% 29.93 in 10.0 mi West 3.5 mph - N/A   Clear
3:35 AM 32.0 °F 25.6 °F 19.4 °F 60% 29.92 in 10.0 mi SW 6.9 mph - N/A   Clear
3:55 AM 32.0 °F 25.6 °F 19.4 °F 60% 29.92 in 10.0 mi WSW 6.9 mph - N/A   Clear
4:15 AM 32.0 °F 26.4 °F 19.4 °F 60% 29.92 in 10.0 mi SW 5.8 mph - N/A   Clear
4:35 AM 33.8 °F 27.7 °F 19.4 °F 56% 29.92 in 10.0 mi WSW 6.9 mph - N/A   Clear
4:55 AM 33.8 °F 27.7 °F 19.4 °F 56% 29.92 in 10.0 mi WSW 6.9 mph - N/A   Clear
5:15 AM 33.8 °F 29.6 °F 21.2 °F 60% 29.92 in 10.0 mi West 4.6 mph - N/A   Clear
5:35 AM 32.0 °F 27.5 °F 21.2 °F 64% 29.91 in 10.0 mi WSW 4.6 mph - N/A   Clear
5:55 AM 32.0 °F 26.4 °F 21.2 °F 64% 29.91 in 10.0 mi West 5.8 mph - N/A   Clear
6:15 AM 33.8 °F 29.6 °F 21.2 °F 60% 29.92 in 10.0 mi WSW 4.6 mph - N/A   Scattered Clouds
6:35 AM 33.8 °F 28.6 °F 19.4 °F 56% 29.92 in 10.0 mi WSW 5.8 mph - N/A   Overcast
6:55 AM 33.8 °F 28.6 °F 21.2 °F 60% 29.92 in 10.0 mi WNW 5.8 mph - N/A   Overcast
7:15 AM 33.8 °F 29.6 °F 19.4 °F 56% 29.93 in 10.0 mi WNW 4.6 mph - N/A   Overcast
7:35 AM 30.2 °F 25.4 °F 21.2 °F 69% 29.93 in 10.0 mi WNW 4.6 mph - N/A   Overcast
7:55 AM 30.2 °F 23.4 °F 21.2 °F 69% 29.94 in 10.0 mi West 6.9 mph - N/A   Overcast
8:15 AM 30.2 °F 21.3 °F 23.0 °F 75% 29.96 in 2.5 mi West 10.4 mph - N/A   Overcast
8:35 AM 28.4 °F 18.5 °F 26.6 °F 93% 29.95 in 1.0 mi WNW 11.5 mph - N/A   Overcast
9:15 AM 26.6 °F 18.2 °F 26.6 °F 100% 29.97 in 1.2 mi NW 8.1 mph - N/A   Overcast
9:35 AM 28.4 °F 22.2 °F 26.6 °F 93% 29.96 in 1.5 mi NW 5.8 mph - N/A   Overcast
9:55 AM 28.4 °F 20.4 °F 24.8 °F 86% 29.98 in 6.0 mi NW 8.1 mph - N/A   Overcast
10:15 AM 28.4 °F 19.7 °F 24.8 °F 86% 29.99 in 10.0 mi NW 9.2 mph - N/A   Mostly Cloudy
10:35 AM 28.4 °F 23.3 °F 23.0 °F 80% 29.99 in 10.0 mi NNW 4.6 mph - N/A   Mostly Cloudy
10:55 AM 30.2 °F 21.3 °F 19.4 °F 64% 29.99 in 10.0 mi NNW 10.4 mph - N/A   Overcast
11:15 AM 30.2 °F 19.8 °F 19.4 °F 64% 29.99 in 10.0 mi NNW 13.8 mph 21.9 mph N/A   Scattered Clouds
11:35 AM 32.0 °F 24.8 °F 17.6 °F 55% 29.99 in 10.0 mi NW 8.1 mph - N/A   Mostly Cloudy
11:55 AM 32.0 °F 23.6 °F 15.8 °F 51% 29.99 in 10.0 mi WNW 10.4 mph 18.4 mph N/A   Mostly Cloudy
12:15 PM 33.8 °F 22.5 °F 19.4 °F 56% 29.99 in 10.0 mi West 19.6 mph 24.2 mph N/A   Partly Cloudy
12:35 PM 33.8 °F 23.2 °F 12.2 °F 41% 30.00 in 10.0 mi WNW 17.3 mph 25.3 mph N/A   Clear
1:15 PM 33.8 °F 24.8 °F 10.4 °F 38% 30.01 in 10.0 mi WNW 12.7 mph 20.7 mph N/A   Clear
1:35 PM 33.8 °F 24.3 °F 12.2 °F 41% 30.01 in 10.0 mi WNW 13.8 mph 24.2 mph N/A   Clear
1:55 PM 32.0 °F 19.8 °F 10.4 °F 41% 30.01 in 10.0 mi West 20.7 mph 27.6 mph N/A   Clear
2:35 PM 32.0 °F 20.1 °F 8.6 °F 38% 30.02 in 10.0 mi West 19.6 mph 25.3 mph N/A   Clear
3:15 PM 30.2 °F 17.8 °F 6.8 °F 37% 30.04 in 10.0 mi West 19.6 mph 24.2 mph N/A   Clear
3:35 PM 30.2 °F 18.9 °F 6.8 °F 37% 30.06 in 10.0 mi West 16.1 mph - N/A   Clear
3:55 PM 30.2 °F 18.5 °F 5.0 °F 34% 30.08 in 10.0 mi WNW 17.3 mph 25.3 mph N/A   Clear
4:15 PM 28.4 °F 17.0 °F 1.4 °F 31% 30.08 in 10.0 mi WNW 15.0 mph 24.2 mph N/A   Clear
4:35 PM 28.4 °F 18.0 °F 3.2 °F 34% 30.10 in 10.0 mi WNW 12.7 mph 19.6 mph N/A   Clear
4:55 PM 26.6 °F 14.7 °F 3.2 °F 37% 30.11 in 10.0 mi WNW 15.0 mph 21.9 mph N/A   Clear
5:15 PM 26.6 °F 15.2 °F -0.4 °F 31% 30.12 in 10.0 mi West 13.8 mph 18.4 mph N/A   Clear
5:35 PM 26.6 °F 16.2 °F 1.4 °F 34% 30.13 in 10.0 mi WNW 11.5 mph 20.7 mph N/A   Clear
5:55 PM 26.6 °F 17.5 °F -0.4 °F 31% 30.15 in 10.0 mi WNW 9.2 mph 16.1 mph N/A   Clear
6:15 PM 26.6 °F 17.5 °F 1.4 °F 34% 30.16 in 10.0 mi WNW 9.2 mph - N/A   Clear
6:35 PM 24.8 °F 14.6 °F 1.4 °F 36% 30.16 in 10.0 mi WNW 10.4 mph - N/A   Clear
6:55 PM 24.8 °F 14.0 °F 1.4 °F 36% 30.17 in 10.0 mi WNW 11.5 mph - N/A   Clear
7:35 PM 24.8 °F 15.3 °F 1.4 °F 36% 30.19 in 10.0 mi WNW 9.2 mph - N/A   Clear
7:55 PM 23.0 °F 13.9 °F 1.4 °F 39% 30.20 in 10.0 mi West 8.1 mph - N/A   Clear
8:15 PM 21.2 °F 10.9 °F 3.2 °F 46% 30.20 in 10.0 mi WNW 9.2 mph - N/A   Clear
8:35 PM 21.2 °F 12.6 °F 3.2 °F 46% 30.21 in 10.0 mi WNW 6.9 mph - N/A   Clear
8:55 PM 21.2 °F 13.6 °F 3.2 °F 46% 30.21 in 10.0 mi WNW 5.8 mph - N/A   Clear
9:15 PM 21.2 °F 11.7 °F 3.2 °F 46% 30.21 in 10.0 mi West 8.1 mph - N/A   Clear
9:35 PM 19.4 °F 7.9 °F 6.8 °F 58% 30.22 in 10.0 mi West 10.4 mph - N/A   Clear
9:56 PM 21.2 °F 10.1 °F 6.8 °F 54% 30.22 in 10.0 mi WNW 10.4 mph - N/A   Clear
10:15 PM 19.4 °F 7.9 °F 6.8 °F 58% 30.22 in 10.0 mi West 10.4 mph - N/A   Clear
10:35 PM 19.4 °F 7.9 °F 6.8 °F 58% 30.23 in 10.0 mi West 10.4 mph - N/A   Clear
10:55 PM 19.4 °F 7.9 °F 8.6 °F 63% 30.24 in 10.0 mi West 10.4 mph - N/A   Clear
11:15 PM 19.4 °F 9.5 °F 6.8 °F 58% 30.24 in 10.0 mi WNW 8.1 mph - N/A   Clear
11:35 PM 19.4 °F 7.2 °F 6.8 °F 58% 30.25 in 10.0 mi West 11.5 mph - N/A   Clear
11:55 PM 19.4 °F 7.9 °F 6.8 °F 58% 30.25 in 10.0 mi West 10.4 mph - N/A   Clear